createdAt,value
2023-02-13T00:00:49.544Z,32.15
2023-02-13T00:03:16.438Z,34.30
2023-02-13T00:05:43.449Z,31.75
2023-02-13T00:08:10.435Z,34.05
2023-02-13T00:10:37.842Z,33.97
2023-02-13T00:13:04.807Z,33.10
2023-02-13T00:15:32.772Z,35.05
2023-02-13T00:18:00.262Z,35.90
2023-02-13T00:20:28.319Z,33.35
2023-02-13T00:22:57.079Z,36.40
2023-02-13T00:25:25.463Z,35.10
2023-02-13T00:27:55.862Z,37.08
2023-02-13T00:30:24.099Z,35.83
2023-02-13T00:32:51.750Z,36.55
2023-02-13T00:35:19.073Z,37.17
2023-02-13T00:37:46.051Z,34.70
2023-02-13T00:40:13.426Z,35.70
2023-02-13T00:42:41.231Z,35.20
2023-02-13T00:45:09.892Z,36.33
2023-02-13T00:47:37.109Z,36.60
2023-02-13T00:50:04.609Z,37.15
2023-02-13T00:52:31.793Z,36.95
2023-02-13T00:54:59.080Z,36.35
2023-02-13T00:57:26.917Z,36.42
2023-02-13T00:59:54.195Z,35.92
2023-02-13T01:02:22.532Z,35.58
2023-02-13T01:04:49.959Z,36.35
2023-02-13T01:07:20.184Z,35.03
2023-02-13T01:09:50.137Z,36.35
2023-02-13T01:12:17.457Z,35.40
2023-02-13T01:14:45.625Z,33.60
2023-02-13T01:17:12.578Z,34.50
2023-02-13T01:19:41.255Z,34.28
2023-02-13T01:22:10.022Z,35.20
2023-02-13T01:24:37.031Z,35.40
2023-02-13T01:27:04.380Z,34.67
2023-02-13T01:29:32.100Z,35.13
2023-02-13T01:32:03.055Z,36.03
2023-02-13T01:34:33.335Z,35.08
2023-02-13T01:37:00.495Z,33.03
2023-02-13T01:39:27.459Z,33.03
2023-02-13T01:41:54.950Z,35.03
2023-02-13T01:44:49.883Z,34.65
2023-02-13T01:47:29.689Z,35.25
2023-02-13T01:50:26.639Z,33.28
2023-02-13T01:53:03.698Z,32.45
2023-02-13T01:55:35.832Z,31.98
2023-02-13T01:58:10.902Z,33.03
2023-02-13T02:00:39.557Z,34.03
2023-02-13T02:03:14.324Z,33.72
2023-02-13T02:05:43.435Z,33.72
2023-02-13T02:08:12.706Z,32.25
2023-02-13T02:10:41.435Z,33.10
2023-02-13T02:13:15.244Z,33.53
2023-02-13T02:15:45.275Z,32.70
2023-02-13T02:18:24.646Z,32.95
2023-02-13T02:21:06.839Z,32.22
2023-02-13T02:24:15.926Z,31.60
2023-02-13T02:27:05.676Z,32.83
2023-02-13T02:29:56.202Z,31.88
2023-02-13T02:32:59.303Z,33.40
2023-02-13T02:35:42.108Z,32.15
2023-02-13T02:38:27.344Z,32.38
2023-02-13T02:41:45.364Z,31.92
2023-02-13T02:44:28.783Z,32.55
2023-02-13T02:47:43.729Z,33.50
2023-02-13T02:50:29.526Z,32.78
2023-02-13T02:53:04.741Z,31.45
2023-02-13T02:55:39.414Z,32.72
2023-02-13T02:58:41.180Z,31.98
2023-02-13T03:01:43.449Z,32.17
2023-02-13T03:04:45.820Z,32.90
2023-02-13T03:07:17.511Z,31.38
2023-02-13T03:10:09.759Z,31.83
2023-02-13T03:13:00.992Z,32.80
2023-02-13T03:15:29.019Z,31.88
2023-02-13T03:18:16.753Z,33.08
2023-02-13T03:21:10.780Z,32.78
2023-02-13T03:23:49.310Z,34.60
2023-02-13T03:26:33.403Z,32.35
2023-02-13T03:29:54.146Z,33.63
2023-02-13T03:32:36.633Z,31.85
2023-02-13T03:35:39.531Z,31.60
2023-02-13T03:38:19.513Z,31.98
2023-02-13T03:41:30.551Z,32.58
2023-02-13T03:44:15.111Z,33.28
2023-02-13T03:46:49.560Z,33.83
2023-02-13T03:49:48.482Z,34.22
2023-02-13T03:52:31.835Z,34.97
2023-02-13T03:55:25.996Z,34.58
2023-02-13T03:58:18.656Z,35.05
2023-02-13T04:00:52.052Z,34.33
2023-02-13T04:03:35.690Z,34.20
2023-02-13T04:06:17.073Z,33.85
2023-02-13T04:08:44.583Z,35.20
2023-02-13T04:11:33.093Z,33.17
2023-02-13T04:14:08.263Z,34.75
2023-02-13T04:16:45.046Z,33.88
2023-02-13T04:19:12.968Z,34.45
2023-02-13T04:21:40.746Z,33.92
2023-02-13T04:24:08.799Z,34.28
2023-02-13T04:26:39.821Z,34.38
2023-02-13T04:29:09.415Z,35.63
2023-02-13T04:31:36.509Z,34.45
2023-02-13T04:34:04.088Z,34.45
2023-02-13T04:36:32.688Z,34.08
2023-02-13T04:38:59.774Z,35.58
2023-02-13T04:41:26.852Z,35.05
2023-02-13T04:43:55.541Z,34.67
2023-02-13T04:46:22.553Z,36.03
2023-02-13T04:48:49.676Z,35.08
2023-02-13T04:51:16.667Z,34.83
2023-02-13T04:53:44.892Z,35.83
2023-02-13T04:56:12.019Z,36.15
2023-02-13T04:58:39.362Z,35.08
2023-02-13T05:01:16.988Z,35.05
2023-02-13T05:03:44.338Z,36.67
2023-02-13T05:06:11.349Z,36.55
2023-02-13T05:08:38.482Z,35.75
2023-02-13T05:11:06.049Z,34.35
2023-02-13T05:13:33.725Z,36.08
2023-02-13T05:16:12.899Z,34.05
2023-02-13T05:18:40.056Z,34.97
2023-02-13T05:21:25.792Z,36.05
2023-02-13T05:26:21.079Z,35.90
2023-02-13T05:29:14.892Z,33.03
2023-02-13T05:31:42.104Z,34.42
2023-02-13T05:34:09.246Z,36.58
2023-02-13T05:36:40.237Z,36.80
2023-02-13T05:39:10.297Z,34.72
2023-02-13T05:41:38.307Z,37.17
2023-02-13T05:44:08.067Z,37.15
2023-02-13T05:46:37.999Z,36.20
2023-02-13T05:49:07.981Z,37.10
2023-02-13T05:51:35.336Z,37.25
2023-02-13T05:54:05.688Z,37.00
2023-02-13T05:56:32.980Z,37.13
2023-02-13T05:59:00.143Z,36.95
2023-02-13T06:01:27.305Z,37.08
2023-02-13T06:03:54.435Z,37.15
2023-02-13T06:06:22.889Z,37.85
2023-02-13T06:08:49.908Z,36.38
2023-02-13T06:11:17.872Z,38.95
2023-02-13T06:13:45.882Z,37.72
2023-02-13T06:16:13.626Z,37.47
2023-02-13T06:18:40.839Z,37.70
2023-02-13T06:21:09.084Z,36.10
2023-02-13T06:23:36.739Z,39.42
2023-02-13T06:26:09.244Z,36.78
2023-02-13T06:28:36.420Z,39.60
2023-02-13T06:31:03.863Z,37.65
2023-02-13T06:33:31.371Z,37.63
2023-02-13T06:35:58.502Z,36.10
2023-02-13T06:38:25.764Z,38.08
2023-02-13T06:40:52.853Z,36.72
2023-02-13T06:43:19.921Z,38.35
2023-02-13T06:45:47.354Z,39.08
2023-02-13T06:48:16.814Z,38.15
2023-02-13T06:50:43.868Z,38.88
2023-02-13T06:53:11.006Z,38.97
2023-02-13T06:55:40.307Z,40.35
2023-02-13T06:58:07.453Z,39.83
2023-02-13T07:00:34.984Z,40.72
2023-02-13T07:03:06.693Z,38.67
2023-02-13T07:05:35.234Z,40.58
2023-02-13T07:08:02.316Z,41.22
2023-02-13T07:10:29.449Z,39.55
2023-02-13T07:13:05.285Z,40.30
2023-02-13T07:15:35.610Z,40.40
2023-02-13T07:18:04.128Z,42.58
2023-02-13T07:20:31.229Z,41.40
2023-02-13T07:23:00.254Z,41.35
2023-02-13T07:25:34.961Z,42.22
2023-02-13T07:28:04.325Z,43.40
2023-02-13T07:30:32.573Z,40.15
2023-02-13T07:33:05.834Z,40.33
2023-02-13T07:35:33.824Z,47.10
2023-02-13T07:38:02.114Z,41.85
2023-02-13T07:40:30.515Z,42.53
2023-02-13T07:43:01.106Z,43.03
2023-02-13T07:45:29.337Z,42.25
2023-02-13T07:47:57.376Z,43.95
2023-02-13T07:50:24.941Z,44.28
2023-02-13T07:52:58.046Z,45.90
2023-02-13T07:55:26.839Z,46.83
2023-02-13T07:57:53.757Z,48.15
2023-02-13T08:00:21.861Z,49.88
2023-02-13T08:02:49.296Z,49.45
2023-02-13T08:05:16.632Z,48.33
2023-02-13T08:07:46.139Z,46.70
2023-02-13T08:10:33.129Z,47.20
2023-02-13T08:13:00.531Z,48.33
2023-02-13T08:15:29.381Z,46.08
2023-02-13T08:17:58.007Z,47.28
2023-02-13T08:20:27.789Z,45.85
2023-02-13T08:23:06.448Z,48.20
2023-02-13T08:25:36.951Z,45.33
2023-02-13T08:28:04.251Z,47.97
2023-02-13T08:30:31.546Z,45.90
2023-02-13T08:32:58.771Z,47.22
2023-02-13T08:35:29.959Z,48.53
2023-02-13T08:37:58.083Z,46.22
2023-02-13T08:40:26.011Z,48.63
2023-02-13T08:42:53.155Z,48.42
2023-02-13T08:45:20.507Z,48.03
2023-02-13T08:47:47.644Z,47.42
2023-02-13T08:50:14.799Z,48.53
2023-02-13T08:52:43.621Z,48.42
2023-02-13T08:55:10.690Z,48.33
2023-02-13T08:57:37.966Z,47.63
2023-02-13T09:00:06.386Z,47.60
2023-02-13T09:02:34.840Z,47.95
2023-02-13T09:05:03.065Z,47.70
2023-02-13T09:07:37.564Z,48.67
2023-02-13T09:10:05.089Z,48.58
2023-02-13T09:12:32.221Z,50.35
2023-02-13T09:14:59.223Z,49.15
2023-02-13T09:17:35.758Z,50.13
2023-02-13T09:20:04.136Z,50.72
2023-02-13T09:22:31.128Z,50.38
2023-02-13T09:25:01.233Z,52.35
2023-02-13T09:27:28.282Z,49.53
2023-02-13T09:29:56.645Z,50.20
2023-02-13T09:32:24.871Z,50.65
2023-02-13T09:34:52.094Z,48.95
2023-02-13T09:37:19.383Z,50.97
2023-02-13T09:39:46.375Z,52.60
2023-02-13T09:42:26.886Z,49.65
2023-02-13T09:44:58.331Z,46.72
2023-02-13T09:47:42.683Z,48.15
2023-02-13T09:50:22.708Z,48.15
2023-02-13T09:52:52.979Z,49.22
2023-02-13T09:55:32.360Z,49.63
2023-02-13T09:58:21.039Z,48.72
2023-02-13T10:00:58.112Z,45.50
2023-02-13T10:03:56.880Z,46.45
2023-02-13T10:06:50.319Z,47.03
2023-02-13T10:09:21.334Z,47.40
2023-02-13T10:12:07.071Z,42.40
2023-02-13T10:14:43.291Z,41.72
2023-02-13T10:17:26.673Z,39.58
2023-02-13T10:20:31.352Z,39.05
2023-02-13T10:23:22.040Z,37.55
2023-02-13T10:26:00.316Z,37.30
2023-02-13T10:29:15.502Z,32.00
2023-02-13T10:31:46.355Z,28.05
2023-02-13T10:34:17.610Z,29.65
2023-02-13T10:36:49.130Z,28.20
2023-02-13T10:39:23.142Z,28.88
2023-02-13T10:41:54.804Z,28.85
2023-02-13T10:44:47.454Z,27.05
2023-02-13T10:47:14.548Z,28.48
2023-02-13T10:50:15.547Z,27.67
2023-02-13T10:53:02.196Z,26.73
2023-02-13T10:55:59.883Z,27.52
2023-02-13T10:58:32.433Z,27.40
2023-02-13T11:01:15.552Z,27.98
2023-02-13T11:03:51.305Z,25.20
2023-02-13T11:06:20.575Z,25.73
2023-02-13T11:08:48.606Z,26.10
2023-02-13T11:11:31.817Z,26.55
2023-02-13T11:14:21.363Z,27.08
2023-02-13T11:16:59.900Z,26.05
2023-02-13T11:19:53.338Z,25.75
2023-02-13T11:22:38.077Z,26.58
2023-02-13T11:27:38.522Z,25.92
2023-02-13T11:30:36.563Z,25.77
2023-02-13T11:33:07.208Z,27.00
2023-02-13T11:35:37.833Z,26.88
2023-02-13T11:38:27.497Z,25.25
2023-02-13T11:41:11.072Z,26.02
2023-02-13T11:43:48.051Z,27.83
2023-02-13T11:46:26.428Z,26.55
2023-02-13T11:49:05.640Z,26.85
2023-02-13T11:51:43.239Z,26.13
2023-02-13T11:54:31.322Z,25.42
2023-02-13T11:57:18.403Z,25.90
2023-02-13T11:59:47.964Z,24.92
2023-02-13T12:02:24.683Z,24.45
2023-02-13T12:05:13.104Z,25.83
2023-02-13T12:07:41.710Z,25.50
2023-02-13T12:10:28.886Z,26.88
2023-02-13T12:13:15.823Z,27.05
2023-02-13T12:15:44.512Z,24.92
2023-02-13T12:18:41.168Z,25.83
2023-02-13T12:21:19.258Z,25.27
2023-02-13T12:24:03.823Z,25.67
2023-02-13T12:26:30.873Z,25.52
2023-02-13T12:29:08.853Z,24.95
2023-02-13T12:32:03.187Z,25.55
2023-02-13T12:34:42.282Z,26.48
2023-02-13T12:37:25.141Z,25.40
2023-02-13T12:40:25.052Z,25.85
2023-02-13T12:43:32.378Z,25.95
2023-02-13T12:46:39.540Z,27.98
2023-02-13T12:49:23.578Z,25.73
2023-02-13T12:52:17.741Z,26.25
2023-02-13T12:54:50.761Z,25.20
2023-02-13T12:57:43.925Z,26.33
2023-02-13T13:00:26.302Z,26.00
2023-02-13T13:03:26.932Z,25.27
2023-02-13T13:06:08.959Z,25.88
2023-02-13T13:09:13.268Z,26.73
2023-02-13T13:12:02.834Z,25.63
2023-02-13T13:14:43.290Z,26.55
2023-02-13T13:17:17.491Z,24.77
2023-02-13T13:19:56.931Z,25.52
2023-02-13T13:22:38.789Z,25.95
2023-02-13T13:25:30.618Z,25.90
2023-02-13T13:28:14.304Z,25.98
2023-02-13T13:30:43.400Z,26.05
2023-02-13T13:33:15.561Z,25.88
2023-02-13T13:35:58.760Z,26.35
2023-02-13T13:38:52.384Z,25.08
2023-02-13T13:41:24.913Z,25.67
2023-02-13T13:44:10.983Z,25.15
2023-02-13T13:46:50.794Z,23.55
2023-02-13T13:49:30.400Z,24.65
2023-02-13T13:52:29.453Z,25.70
2023-02-13T13:55:00.832Z,24.92
2023-02-13T13:57:41.407Z,25.40
2023-02-13T14:00:14.176Z,25.55
2023-02-13T14:02:49.054Z,24.58
2023-02-13T14:05:28.406Z,25.73
2023-02-13T14:08:04.428Z,25.38
2023-02-13T14:10:34.574Z,24.73
2023-02-13T14:13:03.525Z,24.20
2023-02-13T14:15:44.820Z,24.08
2023-02-13T14:18:13.114Z,24.33
2023-02-13T14:20:52.205Z,23.02
2023-02-13T14:24:04.026Z,23.30
2023-02-13T14:26:33.032Z,23.08
2023-02-13T14:29:10.401Z,23.58
2023-02-13T14:31:41.758Z,23.17
2023-02-13T14:34:20.490Z,24.30
2023-02-13T14:37:07.306Z,25.15
2023-02-13T14:39:36.348Z,24.30
2023-02-13T14:42:25.945Z,23.27
2023-02-13T14:44:58.389Z,24.33
2023-02-13T14:47:43.123Z,24.92
2023-02-13T14:50:23.991Z,24.67
2023-02-13T14:52:52.338Z,24.83
2023-02-13T14:55:40.864Z,25.17
2023-02-13T14:58:20.489Z,24.40
2023-02-13T15:01:11.004Z,23.98
2023-02-13T15:03:57.526Z,25.10
2023-02-13T15:06:49.560Z,24.50
2023-02-13T15:09:22.569Z,22.33
2023-02-13T15:11:51.714Z,24.23
2023-02-13T15:14:33.400Z,25.13
2023-02-13T15:17:18.357Z,25.40
2023-02-13T15:19:52.132Z,22.92
2023-02-13T15:22:38.666Z,24.27
2023-02-13T15:25:08.569Z,24.15
2023-02-13T15:27:44.702Z,24.08
2023-02-13T15:30:40.512Z,24.48
2023-02-13T15:33:19.543Z,25.38
2023-02-13T15:35:47.099Z,24.55
2023-02-13T15:38:44.120Z,24.88
2023-02-13T15:41:22.046Z,26.67
2023-02-13T15:43:56.841Z,23.73
2023-02-13T15:46:35.549Z,24.90
2023-02-13T15:49:14.390Z,24.50
2023-02-13T15:51:42.001Z,26.05
2023-02-13T15:54:32.216Z,24.92
2023-02-13T15:57:11.360Z,25.13
2023-02-13T15:59:40.422Z,25.67
2023-02-13T16:02:16.579Z,25.13
2023-02-13T16:04:43.970Z,25.55
2023-02-13T16:07:13.602Z,25.33
2023-02-13T16:09:40.923Z,24.50
2023-02-13T16:12:24.345Z,26.67
2023-02-13T16:14:53.958Z,24.92
2023-02-13T16:17:35.145Z,27.30
2023-02-13T16:20:08.491Z,25.92
2023-02-13T16:22:49.557Z,25.65
2023-02-13T16:25:24.606Z,25.67
2023-02-13T16:28:10.284Z,29.17
2023-02-13T16:30:41.426Z,25.52
2023-02-13T16:33:14.592Z,26.45
2023-02-13T16:35:59.934Z,25.73
2023-02-13T16:38:48.862Z,25.52
2023-02-13T16:41:33.789Z,25.67
2023-02-13T16:44:06.752Z,24.83
2023-02-13T16:46:39.887Z,28.95
2023-02-13T16:49:13.302Z,28.60
2023-02-13T16:51:54.629Z,27.23
2023-02-13T16:54:48.045Z,28.90
2023-02-13T16:57:15.537Z,24.63
2023-02-13T16:59:48.590Z,27.73
2023-02-13T17:02:27.555Z,29.27
2023-02-13T17:05:01.692Z,30.45
2023-02-13T17:07:32.101Z,30.35
2023-02-13T17:10:21.415Z,30.83
2023-02-13T17:12:50.155Z,70.53
2023-02-13T17:15:21.101Z,43.45
2023-02-13T17:17:48.495Z,36.95
2023-02-13T17:20:22.235Z,36.42
2023-02-13T17:22:52.684Z,33.88
2023-02-13T17:25:23.611Z,31.33
2023-02-13T17:27:52.532Z,31.83
2023-02-13T17:30:26.040Z,33.00
2023-02-13T17:33:13.104Z,33.92
2023-02-13T17:35:40.430Z,33.60
2023-02-13T17:38:09.598Z,33.15
2023-02-13T17:40:37.231Z,34.00
2023-02-13T17:43:06.347Z,33.72
2023-02-13T17:45:35.561Z,31.70
2023-02-13T17:48:03.144Z,33.63
2023-02-13T17:50:32.073Z,32.95
2023-02-13T17:53:02.961Z,34.10
2023-02-13T17:55:32.879Z,34.05
2023-02-13T17:58:03.131Z,36.45
2023-02-13T18:00:34.392Z,34.42
2023-02-13T18:03:03.909Z,33.63
2023-02-13T18:05:36.543Z,34.80
2023-02-13T18:08:04.257Z,33.03
2023-02-13T18:10:36.083Z,32.10
2023-02-13T18:13:06.452Z,32.28
2023-02-13T18:15:42.489Z,32.88
2023-02-13T18:18:10.979Z,31.45
2023-02-13T18:20:41.121Z,32.63
2023-02-13T18:23:09.228Z,31.98
2023-02-13T18:25:36.834Z,34.53
2023-02-13T18:28:04.274Z,33.63
2023-02-13T18:30:31.882Z,32.08
2023-02-13T18:33:00.762Z,32.78
2023-02-13T18:35:28.000Z,34.58
2023-02-13T18:37:55.966Z,33.08
2023-02-13T18:40:23.364Z,33.35
2023-02-13T18:42:51.238Z,33.88
2023-02-13T18:45:20.099Z,35.40
2023-02-13T18:47:47.330Z,37.85
2023-02-13T18:50:14.419Z,42.58
2023-02-13T18:52:41.792Z,43.67
2023-02-13T18:55:10.425Z,44.05
2023-02-13T18:57:37.895Z,43.20
2023-02-13T19:00:06.098Z,42.22
2023-02-13T19:02:33.581Z,43.95
2023-02-13T19:05:01.498Z,44.75
2023-02-13T19:07:29.412Z,44.58
2023-02-13T19:09:56.709Z,46.20
2023-02-13T19:12:23.925Z,47.03
2023-02-13T19:14:51.068Z,47.53
2023-02-13T19:17:18.353Z,44.78
2023-02-13T19:19:48.762Z,42.10
2023-02-13T19:22:16.256Z,41.28
2023-02-13T19:24:43.350Z,43.15
2023-02-13T19:27:11.690Z,38.30
2023-02-13T19:29:38.765Z,37.75
2023-02-13T19:32:05.886Z,43.03
2023-02-13T19:34:32.776Z,41.20
2023-02-13T19:37:01.287Z,41.35
2023-02-13T19:39:28.455Z,40.58
2023-02-13T19:41:57.299Z,41.10
2023-02-13T19:44:24.608Z,39.83
2023-02-13T19:46:52.050Z,41.30
2023-02-13T19:49:22.690Z,41.55
2023-02-13T19:51:51.121Z,41.65
2023-02-13T19:54:18.294Z,39.88
2023-02-13T19:56:45.594Z,39.08
2023-02-13T19:59:13.799Z,38.78
2023-02-13T20:01:43.187Z,37.20
2023-02-13T20:04:11.403Z,37.53
2023-02-13T20:06:38.773Z,38.47
2023-02-13T20:09:10.403Z,39.20
2023-02-13T20:11:38.110Z,38.10
2023-02-13T20:14:05.628Z,38.58
2023-02-13T20:16:35.863Z,37.42
2023-02-13T20:19:07.739Z,38.15
2023-02-13T20:21:35.755Z,38.58
2023-02-13T20:24:03.304Z,39.45
2023-02-13T20:26:30.841Z,37.05
2023-02-13T20:28:59.616Z,38.88
2023-02-13T20:31:29.370Z,39.17
2023-02-13T20:33:58.696Z,39.15
2023-02-13T20:36:28.669Z,42.72
2023-02-13T20:38:58.669Z,41.63
2023-02-13T20:41:28.664Z,40.53
2023-02-13T20:44:00.437Z,43.50
2023-02-13T20:46:31.218Z,41.58
2023-02-13T20:48:58.481Z,42.05
2023-02-13T20:51:25.522Z,42.53
2023-02-13T20:53:52.683Z,46.92
2023-02-13T20:56:22.421Z,46.92
2023-02-13T20:58:51.088Z,43.88
2023-02-13T21:01:23.739Z,45.22
2023-02-13T21:03:56.340Z,42.90
2023-02-13T21:06:32.210Z,44.38
2023-02-13T21:09:01.482Z,40.03
2023-02-13T21:11:30.815Z,43.97
2023-02-13T21:13:58.432Z,41.25
2023-02-13T21:16:28.598Z,41.75
2023-02-13T21:18:58.518Z,40.80
2023-02-13T21:21:28.728Z,43.28
2023-02-13T21:23:57.328Z,41.33
2023-02-13T21:26:25.252Z,40.28
2023-02-13T21:28:53.437Z,44.67
2023-02-13T21:31:24.163Z,41.40
2023-02-13T21:33:52.640Z,40.88
2023-02-13T21:36:19.807Z,41.55
2023-02-13T21:38:46.784Z,41.83
2023-02-13T21:41:18.355Z,42.17
2023-02-13T21:43:49.991Z,42.05
2023-02-13T21:46:23.099Z,40.63
2023-02-13T21:49:12.643Z,41.70
2023-02-13T21:51:40.924Z,40.28
2023-02-13T21:54:08.131Z,42.55
2023-02-13T21:56:38.721Z,42.03
2023-02-13T21:59:06.165Z,43.63
2023-02-13T22:01:53.771Z,43.83
2023-02-13T22:04:21.018Z,45.50
2023-02-13T22:06:51.251Z,43.88
2023-02-13T22:09:20.559Z,41.95
2023-02-13T22:11:47.634Z,40.65
2023-02-13T22:14:17.962Z,41.13
2023-02-13T22:16:46.032Z,43.60
2023-02-13T22:19:15.768Z,42.30
2023-02-13T22:21:43.252Z,43.88
2023-02-13T22:24:11.398Z,44.28
2023-02-13T22:26:41.114Z,43.97
2023-02-13T22:29:11.597Z,43.67
2023-02-13T22:31:39.454Z,44.85
2023-02-13T22:34:07.478Z,42.67
2023-02-13T22:36:39.426Z,42.97
2023-02-13T22:39:07.543Z,43.35
2023-02-13T22:41:34.751Z,43.33
2023-02-13T22:44:02.624Z,42.88
2023-02-13T22:46:31.807Z,40.92
2023-02-13T22:49:00.015Z,42.40
2023-02-13T22:51:32.999Z,41.85
2023-02-13T22:54:00.359Z,43.72
2023-02-13T22:56:29.062Z,42.17
2023-02-13T22:58:56.691Z,40.58
2023-02-13T23:01:25.570Z,41.63
2023-02-13T23:03:55.388Z,40.63
2023-02-13T23:06:23.451Z,40.42
2023-02-13T23:08:52.977Z,42.67
2023-02-13T23:11:41.044Z,42.03
2023-02-13T23:14:10.487Z,43.42
2023-02-13T23:17:01.480Z,42.00
2023-02-13T23:19:30.207Z,40.72
2023-02-13T23:21:58.036Z,39.45
2023-02-13T23:24:25.409Z,38.72
2023-02-13T23:26:52.508Z,39.55
2023-02-13T23:29:20.104Z,41.38
2023-02-13T23:31:47.482Z,38.85
2023-02-13T23:34:14.610Z,40.33
2023-02-13T23:36:41.629Z,41.10
2023-02-13T23:39:08.771Z,37.80
2023-02-13T23:41:35.824Z,39.78
2023-02-13T23:44:02.864Z,40.90
2023-02-13T23:46:29.934Z,39.08
2023-02-13T23:48:57.063Z,39.30
2023-02-13T23:51:25.750Z,40.03
2023-02-13T23:53:56.460Z,40.63
2023-02-13T23:56:25.344Z,38.40
2023-02-13T23:58:52.827Z,38.22
